Time;durP1;ratioP1;P1;durP2;ratioP2;P2;SDS_P1;SDS_P2;PMS_P1;PMS_P2;Temp;Humidity;BMP_temperature;BMP_pressure;BME280_temperature;BME280_humidity;BME280_pressure;Samples;Min_cycle;Max_cycle;Signal;HPM_P1;HPM_P2
2023/03/20 00:00:41;;;;;;;;;;;20.70;43.80;;;;;;5107841;28;20295;-65
2023/03/20 00:03:09;;;;;;;;;;;21.00;43.10;;;;;;5107709;28;19931;-67
2023/03/20 00:05:35;;;;;;;;;;;21.20;42.60;;;;;;5108013;28;19927;-67
2023/03/20 00:08:04;;;;;;;;;;;21.40;42.20;;;;;;5107404;28;19931;-68
2023/03/20 00:10:33;;;;;;;;;;;21.50;41.80;;;;;;5109089;28;19920;-68
2023/03/20 00:12:59;;;;;;;;;;;21.70;41.50;;;;;;5109146;28;19924;-67
2023/03/20 00:15:26;;;;;;;;;;;21.90;41.30;;;;;;5093904;28;20252;-67
2023/03/20 00:17:52;;;;;;;;;;;22.00;41.10;;;;;;5095374;28;19920;-67
2023/03/20 00:20:17;;;;;;;;;;;22.10;40.70;;;;;;5093968;28;20386;-67
2023/03/20 00:22:43;;;;;;;;;;;22.20;40.60;;;;;;5093425;28;20018;-67
2023/03/20 00:25:13;;;;;;;;;;;22.30;40.40;;;;;;5093650;28;19920;-67
2023/03/20 00:27:39;;;;;;;;;;;22.40;40.20;;;;;;5095302;28;19920;-67
2023/03/20 00:30:13;;;;;;;;;;;22.40;40.10;;;;;;5094113;28;20044;-68
2023/03/20 00:32:39;;;;;;;;;;;22.50;40.00;;;;;;5093727;28;20003;-67
2023/03/20 00:35:21;;;;;;;;;;;22.50;39.80;;;;;;5094815;28;20053;-67
2023/03/20 00:37:47;;;;;;;;;;;22.60;40.60;;;;;;5094470;28;20536;-67
2023/03/20 00:40:13;;;;;;;;;;;22.60;39.80;;;;;;5093792;28;20311;-68
2023/03/20 00:42:38;;;;;;;;;;;22.60;39.70;;;;;;5093518;28;20303;-68
2023/03/20 00:45:05;;;;;;;;;;;22.60;39.70;;;;;;5093736;28;19928;-67
2023/03/20 00:47:32;;;;;;;;;;;22.60;39.70;;;;;;5093461;28;19921;-67
2023/03/20 00:49:58;;;;;;;;;;;22.60;39.60;;;;;;5094556;28;19974;-67
2023/03/20 00:52:23;;;;;;;;;;;22.60;39.60;;;;;;5093346;28;20387;-68
2023/03/20 00:54:49;;;;;;;;;;;22.60;39.70;;;;;;5094356;28;19920;-68
2023/03/20 00:57:19;;;;;;;;;;;22.50;39.60;;;;;;5094449;28;19927;-67
2023/03/20 00:59:51;;;;;;;;;;;22.60;39.70;;;;;;5094881;28;19982;-68
2023/03/20 01:02:16;;;;;;;;;;;22.50;39.70;;;;;;5100096;28;19924;-67
2023/03/20 01:04:43;;;;;;;;;;;22.50;39.80;;;;;;5096815;28;19988;-68
2023/03/20 01:07:11;;;;;;;;;;;22.40;40.10;;;;;;5114706;28;19924;-65
2023/03/20 01:09:37;;;;;;;;;;;22.40;39.80;;;;;;5114027;28;19923;-68
2023/03/20 01:12:03;;;;;;;;;;;22.40;39.80;;;;;;5096252;28;20298;-67
2023/03/20 01:14:28;;;;;;;;;;;22.40;39.80;;;;;;5096543;28;19920;-67
2023/03/20 01:16:54;;;;;;;;;;;22.40;39.90;;;;;;5096530;28;19959;-67
2023/03/20 01:19:20;;;;;;;;;;;22.30;39.90;;;;;;5114435;28;19927;-67
2023/03/20 01:21:45;;;;;;;;;;;22.30;40.00;;;;;;5114300;28;19926;-68
2023/03/20 01:24:11;;;;;;;;;;;22.20;40.00;;;;;;5113795;28;19926;-68
2023/03/20 01:26:38;;;;;;;;;;;22.20;40.10;;;;;;5113145;28;20507;-67
2023/03/20 01:29:15;;;;;;;;;;;22.10;40.20;;;;;;5096061;28;20421;-67
2023/03/20 01:31:40;;;;;;;;;;;22.00;40.30;;;;;;5096078;28;19958;-67
2023/03/20 01:34:08;;;;;;;;;;;22.00;40.50;;;;;;5096078;28;19981;-67
2023/03/20 01:36:35;;;;;;;;;;;21.90;40.60;;;;;;5114130;28;19931;-67
2023/03/20 01:39:01;;;;;;;;;;;21.90;40.60;;;;;;5095102;28;19927;-67
2023/03/20 01:41:26;;;;;;;;;;;22.00;40.60;;;;;;5113974;28;19919;-68
2023/03/20 01:43:52;;;;;;;;;;;22.00;40.50;;;;;;5095655;28;20290;-67
2023/03/20 01:46:27;;;;;;;;;;;22.00;40.40;;;;;;5096021;28;20025;-67
2023/03/20 01:51:34;;;;;;;;;;;22.10;40.20;;;;;;5110309;27;19912;-66
2023/03/20 01:54:03;;;;;;;;;;;22.10;40.10;;;;;;5108157;28;19927;-68
2023/03/20 01:56:31;;;;;;;;;;;22.20;40.10;;;;;;5108744;28;19967;-67
2023/03/20 01:58:59;;;;;;;;;;;22.30;40.00;;;;;;5108705;28;19920;-68
2023/03/20 02:01:26;;;;;;;;;;;22.40;39.90;;;;;;5109149;28;19923;-68
2023/03/20 02:03:52;;;;;;;;;;;22.40;39.80;;;;;;5109018;28;20359;-68
2023/03/20 02:06:20;;;;;;;;;;;22.40;39.80;;;;;;5108770;28;19973;-68
2023/03/20 02:08:47;;;;;;;;;;;22.40;39.70;;;;;;5107889;28;19921;-68
2023/03/20 02:11:14;;;;;;;;;;;22.40;39.70;;;;;;5109945;28;19924;-68
2023/03/20 02:13:39;;;;;;;;;;;22.40;39.80;;;;;;5108794;28;20389;-68
2023/03/20 02:16:06;;;;;;;;;;;22.30;39.80;;;;;;5109587;28;19985;-67
2023/03/20 02:18:33;;;;;;;;;;;22.20;39.80;;;;;;5108512;28;19924;-68
2023/03/20 02:21:18;;;;;;;;;;;22.20;39.90;;;;;;5109602;28;19924;-68
2023/03/20 02:24:03;;;;;;;;;;;22.10;39.90;;;;;;5107374;28;19927;-68
2023/03/20 02:29:44;;;;;;;;;;;22.00;40.20;;;;;;5110319;27;19912;-67
2023/03/20 02:34:55;;;;;;;;;;;21.90;40.40;;;;;;5089828;28;20368;-67
2023/03/20 02:45:26;;;;;;;;;;;21.80;40.60;;;;;;5110126;27;20378;-68
2023/03/20 02:50:43;;;;;;;;;;;21.80;40.60;;;;;;5110167;27;19912;-68
2023/03/20 02:53:16;;;;;;;;;;;21.80;40.50;;;;;;5108429;28;19926;-68
2023/03/20 02:55:51;;;;;;;;;;;21.80;40.50;;;;;;5108853;28;19929;-68
2023/03/20 02:58:36;;;;;;;;;;;21.90;40.50;;;;;;5109141;28;19920;-68
2023/03/20 03:01:07;;;;;;;;;;;21.90;40.50;;;;;;5108626;28;20373;-68
2023/03/20 03:03:52;;;;;;;;;;;21.90;40.40;;;;;;5109093;28;19965;-68
2023/03/20 03:06:22;;;;;;;;;;;22.00;40.40;;;;;;5108433;28;19973;-68
2023/03/20 03:08:51;;;;;;;;;;;22.00;40.30;;;;;;5108062;28;20290;-68
2023/03/20 03:11:19;;;;;;;;;;;22.00;40.20;;;;;;5109691;28;19955;-68
2023/03/20 03:13:50;;;;;;;;;;;22.10;40.20;;;;;;5108631;28;20003;-68
2023/03/20 03:16:22;;;;;;;;;;;22.10;40.20;;;;;;5109872;28;20366;-68
2023/03/20 03:18:49;;;;;;;;;;;22.10;40.00;;;;;;5108858;28;19920;-68
2023/03/20 03:21:16;;;;;;;;;;;22.10;40.00;;;;;;5108323;28;19926;-68
2023/03/20 03:23:43;;;;;;;;;;;22.20;40.00;;;;;;5108944;28;19920;-68
2023/03/20 03:26:12;;;;;;;;;;;22.20;40.00;;;;;;5108517;28;19965;-68
2023/03/20 03:28:41;;;;;;;;;;;22.20;39.90;;;;;;5108446;28;20376;-67
2023/03/20 03:31:08;;;;;;;;;;;22.10;39.90;;;;;;5108509;28;19920;-68
2023/03/20 03:33:38;;;;;;;;;;;22.20;39.80;;;;;;5108021;28;19927;-68
2023/03/20 03:38:49;;;;;;;;;;;22.10;39.90;;;;;;5109438;27;19919;-68
2023/03/20 03:41:19;;;;;;;;;;;22.10;39.90;;;;;;5108835;28;19927;-68
2023/03/20 03:43:49;;;;;;;;;;;22.10;39.80;;;;;;5108883;28;19957;-68
2023/03/20 03:46:18;;;;;;;;;;;22.10;39.80;;;;;;5108778;28;20015;-68
2023/03/20 03:48:48;;;;;;;;;;;22.10;39.90;;;;;;5109073;28;19924;-68
2023/03/20 03:51:18;;;;;;;;;;;22.00;39.80;;;;;;5109095;28;19942;-68
2023/03/20 03:53:49;;;;;;;;;;;22.00;39.90;;;;;;5108391;28;19963;-68
2023/03/20 03:56:19;;;;;;;;;;;22.00;40.00;;;;;;5108723;28;20282;-68
2023/03/20 03:58:47;;;;;;;;;;;22.00;40.00;;;;;;5108791;28;19920;-69
2023/03/20 04:01:13;;;;;;;;;;;22.00;40.00;;;;;;5109931;28;19931;-68
2023/03/20 04:03:41;;;;;;;;;;;22.00;39.90;;;;;;5108889;28;19920;-68
2023/03/20 04:06:08;;;;;;;;;;;22.00;40.00;;;;;;5108447;28;20397;-67
2023/03/20 04:08:34;;;;;;;;;;;22.00;40.00;;;;;;5109114;28;19920;-67
2023/03/20 04:11:00;;;;;;;;;;;21.90;39.90;;;;;;5109587;28;19965;-68
2023/03/20 04:13:25;;;;;;;;;;;21.90;39.90;;;;;;5108272;28;19924;-68
2023/03/20 04:15:54;;;;;;;;;;;21.90;39.90;;;;;;5108598;28;19927;-67
2023/03/20 04:18:20;;;;;;;;;;;22.00;40.00;;;;;;5109481;28;19947;-67
2023/03/20 04:20:46;;;;;;;;;;;22.00;39.90;;;;;;5108626;28;19926;-68
2023/03/20 04:23:11;;;;;;;;;;;22.00;39.90;;;;;;5107604;28;20065;-67
2023/03/20 04:25:37;;;;;;;;;;;22.00;39.80;;;;;;5107994;28;20002;-68
2023/03/20 04:28:06;;;;;;;;;;;22.00;39.80;;;;;;5108149;28;19927;-68
2023/03/20 04:30:31;;;;;;;;;;;22.00;39.80;;;;;;5108343;28;19966;-68
2023/03/20 04:32:57;;;;;;;;;;;22.00;39.80;;;;;;5107984;28;19956;-68
2023/03/20 04:35:23;;;;;;;;;;;22.00;39.80;;;;;;5107850;28;19927;-67
2023/03/20 04:37:48;;;;;;;;;;;22.00;39.80;;;;;;5108255;28;20331;-68
2023/03/20 04:40:14;;;;;;;;;;;22.00;39.70;;;;;;5107610;28;19970;-68
2023/03/20 04:42:40;;;;;;;;;;;22.00;39.60;;;;;;5109296;28;19999;-67
2023/03/20 04:45:05;;;;;;;;;;;22.00;39.60;;;;;;5107559;28;19924;-67
2023/03/20 04:47:31;;;;;;;;;;;22.00;39.60;;;;;;5107746;28;19920;-68
2023/03/20 04:49:56;;;;;;;;;;;22.00;39.60;;;;;;5094552;28;19926;-68
2023/03/20 04:52:22;;;;;;;;;;;22.00;39.60;;;;;;5094561;28;19981;-68
2023/03/20 04:54:47;;;;;;;;;;;22.00;39.60;;;;;;5093429;28;19927;-68
2023/03/20 04:57:13;;;;;;;;;;;22.00;39.60;;;;;;5093858;28;19924;-68
2023/03/20 04:59:39;;;;;;;;;;;22.10;39.50;;;;;;5094010;28;19920;-68
2023/03/20 05:02:04;;;;;;;;;;;22.10;39.50;;;;;;5095658;28;19924;-68
2023/03/20 05:04:30;;;;;;;;;;;22.10;39.50;;;;;;5094034;28;20264;-68
2023/03/20 05:06:56;;;;;;;;;;;22.10;39.50;;;;;;5094125;28;20352;-68
2023/03/20 05:09:24;;;;;;;;;;;22.00;39.50;;;;;;5093299;28;20360;-68
2023/03/20 05:11:50;;;;;;;;;;;22.10;39.40;;;;;;5093686;28;19920;-68
2023/03/20 05:14:15;;;;;;;;;;;22.10;39.40;;;;;;5093485;28;19924;-68
2023/03/20 05:16:41;;;;;;;;;;;22.10;39.40;;;;;;5094708;28;19928;-68
2023/03/20 05:19:06;;;;;;;;;;;22.10;39.40;;;;;;5093545;28;19920;-68
2023/03/20 05:21:32;;;;;;;;;;;22.10;39.30;;;;;;5093690;28;19999;-68
2023/03/20 05:23:57;;;;;;;;;;;22.10;39.20;;;;;;5093052;28;19920;-68
2023/03/20 05:26:23;;;;;;;;;;;22.10;39.20;;;;;;5094371;28;19975;-68
2023/03/20 05:28:48;;;;;;;;;;;22.10;39.20;;;;;;5093721;28;19920;-68
2023/03/20 05:31:14;;;;;;;;;;;22.10;39.20;;;;;;5093487;28;20367;-67
2023/03/20 05:33:39;;;;;;;;;;;22.10;39.20;;;;;;5094676;28;20364;-68
2023/03/20 05:36:06;;;;;;;;;;;22.10;39.20;;;;;;5093113;28;19931;-67
2023/03/20 05:38:31;;;;;;;;;;;22.10;39.20;;;;;;5092232;28;19924;-67
2023/03/20 05:40:57;;;;;;;;;;;22.10;39.20;;;;;;5093001;28;19920;-67
2023/03/20 05:43:23;;;;;;;;;;;22.20;39.10;;;;;;5093442;28;19989;-67
2023/03/20 05:45:49;;;;;;;;;;;22.10;39.00;;;;;;5094201;28;20375;-68
2023/03/20 05:48:14;;;;;;;;;;;22.10;39.10;;;;;;5092908;28;19920;-68
2023/03/20 05:50:40;;;;;;;;;;;22.10;39.10;;;;;;5093198;28;19969;-67
2023/03/20 05:53:06;;;;;;;;;;;22.10;39.10;;;;;;5092164;28;20057;-67
2023/03/20 05:55:32;;;;;;;;;;;22.10;39.20;;;;;;5093081;28;20011;-68
2023/03/20 05:57:57;;;;;;;;;;;22.10;39.10;;;;;;5093849;28;19924;-68
2023/03/20 06:00:23;;;;;;;;;;;22.10;39.10;;;;;;5093039;28;20333;-68
2023/03/20 06:02:48;;;;;;;;;;;22.10;39.00;;;;;;5092867;28;20027;-68
2023/03/20 06:05:14;;;;;;;;;;;22.10;39.00;;;;;;5092985;28;19920;-67
2023/03/20 06:07:39;;;;;;;;;;;22.10;39.00;;;;;;5091512;28;20334;-68
2023/03/20 06:10:05;;;;;;;;;;;22.10;39.00;;;;;;5092312;28;19924;-68
2023/03/20 06:12:31;;;;;;;;;;;22.10;38.90;;;;;;5092478;28;19927;-68
2023/03/20 06:14:56;;;;;;;;;;;22.10;39.00;;;;;;5093662;28;19920;-68
2023/03/20 06:17:22;;;;;;;;;;;22.10;39.00;;;;;;5092198;28;20011;-67
2023/03/20 06:19:47;;;;;;;;;;;22.10;38.90;;;;;;5092738;28;20029;-68
2023/03/20 06:22:13;;;;;;;;;;;22.10;39.00;;;;;;5092252;28;20442;-68
2023/03/20 06:24:38;;;;;;;;;;;22.00;39.00;;;;;;5092796;28;19920;-68
2023/03/20 06:27:04;;;;;;;;;;;22.10;39.00;;;;;;5092442;28;19969;-68
2023/03/20 06:29:30;;;;;;;;;;;22.10;39.00;;;;;;5091726;28;19950;-68
2023/03/20 06:31:55;;;;;;;;;;;22.10;38.90;;;;;;5093351;28;20014;-68
2023/03/20 06:34:24;;;;;;;;;;;22.10;39.30;;;;;;5091852;28;20340;-69
2023/03/20 06:36:50;;;;;;;;;;;21.90;39.00;;;;;;5088873;28;19971;-71
2023/03/20 06:39:16;;;;;;;;;;;21.80;39.20;;;;;;5088888;28;20394;-67
2023/03/20 06:41:41;;;;;;;;;;;21.60;39.30;;;;;;5090472;28;19980;-69
2023/03/20 06:44:07;;;;;;;;;;;21.60;40.30;;;;;;5089886;28;19968;-69
2023/03/20 06:46:32;;;;;;;;;;;21.60;40.10;;;;;;5089821;28;19920;-67
2023/03/20 06:48:58;;;;;;;;;;;21.70;39.40;;;;;;5089906;28;19920;-72
2023/03/20 06:51:23;;;;;;;;;;;21.60;39.10;;;;;;5091216;28;19920;-72
2023/03/20 06:53:50;;;;;;;;;;;21.40;39.00;;;;;;5090775;28;20130;-73
2023/03/20 06:56:15;;;;;;;;;;;21.30;39.10;;;;;;5089850;28;19924;-69
2023/03/20 06:58:41;;;;;;;;;;;21.40;39.30;;;;;;5089362;28;20371;-70
2023/03/20 07:01:08;;;;;;;;;;;21.40;39.00;;;;;;5090099;28;20239;-70
2023/03/20 07:03:34;;;;;;;;;;;21.50;38.60;;;;;;5085122;28;19924;-69
2023/03/20 07:06:00;;;;;;;;;;;21.50;38.60;;;;;;5084899;28;20390;-69
2023/03/20 07:08:25;;;;;;;;;;;21.50;38.10;;;;;;5075316;28;20013;-68
2023/03/20 07:10:51;;;;;;;;;;;21.60;38.40;;;;;;5083409;28;20311;-68
2023/03/20 07:13:17;;;;;;;;;;;22.00;38.30;;;;;;5077785;28;19920;-69
2023/03/20 07:15:42;;;;;;;;;;;22.30;37.90;;;;;;5073847;28;19931;-70
2023/03/20 07:18:08;;;;;;;;;;;22.40;37.30;;;;;;5084588;28;19924;-67
2023/03/20 07:20:33;;;;;;;;;;;22.60;37.40;;;;;;5084373;28;20281;-69
2023/03/20 07:22:59;;;;;;;;;;;22.60;37.00;;;;;;5083019;28;20180;-70
2023/03/20 07:25:25;;;;;;;;;;;22.70;37.10;;;;;;5078612;28;19931;-70
2023/03/20 07:27:50;;;;;;;;;;;22.60;37.00;;;;;;5073580;28;19939;-69
2023/03/20 07:30:19;;;;;;;;;;;22.60;37.10;;;;;;5060636;28;20205;-71
2023/03/20 07:32:44;;;;;;;;;;;22.50;37.40;;;;;;5063877;28;20104;-71
2023/03/20 07:35:11;;;;;;;;;;;22.40;37.50;;;;;;5097979;28;20426;-71
2023/03/20 07:37:36;;;;;;;;;;;22.20;37.60;;;;;;5065481;28;20115;-71
2023/03/20 07:40:02;;;;;;;;;;;22.10;37.80;;;;;;5069158;28;19928;-70
2023/03/20 07:42:28;;;;;;;;;;;22.00;38.20;;;;;;5066978;28;20042;-69
2023/03/20 07:44:53;;;;;;;;;;;22.00;38.80;;;;;;5097763;27;20012;-71
2023/03/20 07:47:19;;;;;;;;;;;21.90;39.10;;;;;;5065829;28;20443;-68
2023/03/20 07:49:45;;;;;;;;;;;21.90;39.20;;;;;;5068147;28;19929;-69
2023/03/20 07:52:11;;;;;;;;;;;21.90;39.00;;;;;;5078430;28;19935;-69
2023/03/20 07:54:36;;;;;;;;;;;21.80;38.90;;;;;;5072128;28;19924;-65
2023/03/20 07:57:04;;;;;;;;;;;21.80;39.40;;;;;;5072349;28;19968;-65
2023/03/20 07:59:30;;;;;;;;;;;21.80;39.50;;;;;;5071544;28;20414;-68
2023/03/20 08:01:55;;;;;;;;;;;21.90;39.60;;;;;;5061492;28;19928;-67
2023/03/20 08:04:21;;;;;;;;;;;22.00;39.60;;;;;;5063986;28;19935;-67
2023/03/20 08:06:50;;;;;;;;;;;22.10;39.40;;;;;;5066998;28;19924;-66
2023/03/20 08:09:16;;;;;;;;;;;22.10;39.30;;;;;;5068598;28;19935;-65
2023/03/20 08:11:44;;;;;;;;;;;22.10;39.50;;;;;;5072069;28;19924;-66
2023/03/20 08:14:10;;;;;;;;;;;22.00;39.60;;;;;;5066334;28;19920;-65
2023/03/20 08:16:36;;;;;;;;;;;22.00;39.60;;;;;;5071570;28;19984;-66
2023/03/20 08:19:02;;;;;;;;;;;21.90;39.80;;;;;;5069532;28;19932;-67
2023/03/20 08:21:31;;;;;;;;;;;21.90;40.00;;;;;;5067933;28;19928;-67
2023/03/20 08:23:56;;;;;;;;;;;21.90;40.20;;;;;;5070449;28;20035;-65
2023/03/20 08:26:23;;;;;;;;;;;22.00;40.00;;;;;;5074707;28;20003;-67
2023/03/20 08:28:48;;;;;;;;;;;21.90;39.60;;;;;;5077011;28;20191;-67
2023/03/20 08:31:15;;;;;;;;;;;21.80;39.30;;;;;;5074402;28;19969;-68
2023/03/20 08:33:40;;;;;;;;;;;21.60;40.00;;;;;;5079428;28;19924;-68
2023/03/20 08:36:06;;;;;;;;;;;21.60;40.20;;;;;;5067296;28;20436;-66
2023/03/20 08:38:32;;;;;;;;;;;21.60;41.00;;;;;;5074059;28;19928;-66
2023/03/20 08:40:57;;;;;;;;;;;21.60;40.30;;;;;;5074725;28;19924;-66
2023/03/20 08:43:23;;;;;;;;;;;21.60;40.30;;;;;;5073673;28;21047;-66
2023/03/20 08:45:48;;;;;;;;;;;21.60;40.30;;;;;;5073158;28;19924;-65
2023/03/20 08:48:14;;;;;;;;;;;21.70;40.40;;;;;;5072396;28;20003;-66
2023/03/20 08:50:40;;;;;;;;;;;21.70;40.50;;;;;;5081894;28;20357;-68
2023/03/20 08:53:09;;;;;;;;;;;21.80;40.50;;;;;;5074559;28;19926;-66
2023/03/20 08:55:34;;;;;;;;;;;21.80;40.60;;;;;;5072046;28;19971;-65
2023/03/20 08:58:00;;;;;;;;;;;21.80;40.60;;;;;;5073382;28;20026;-68
2023/03/20 09:00:26;;;;;;;;;;;21.80;40.80;;;;;;5070474;28;20415;-67
2023/03/20 09:02:52;;;;;;;;;;;21.80;40.90;;;;;;5071193;28;19924;-68
2023/03/20 09:05:17;;;;;;;;;;;21.90;40.90;;;;;;5071991;28;19930;-69
2023/03/20 09:07:43;;;;;;;;;;;22.00;40.80;;;;;;5070967;28;20643;-67
2023/03/20 09:10:09;;;;;;;;;;;22.00;40.70;;;;;;5073614;28;19967;-66
2023/03/20 09:12:35;;;;;;;;;;;22.10;40.70;;;;;;5070394;28;19928;-71
2023/03/20 09:15:01;;;;;;;;;;;22.10;40.60;;;;;;5075161;28;19950;-68
2023/03/20 09:17:26;;;;;;;;;;;22.00;40.60;;;;;;5073632;28;19973;-69
2023/03/20 09:19:52;;;;;;;;;;;22.00;40.90;;;;;;5071416;28;19928;-68
2023/03/20 09:22:17;;;;;;;;;;;22.00;40.80;;;;;;5105515;27;19951;-69
2023/03/20 09:24:43;;;;;;;;;;;21.90;40.80;;;;;;5077680;28;19927;-70
2023/03/20 09:27:09;;;;;;;;;;;21.90;40.90;;;;;;5074033;28;19978;-72
2023/03/20 09:29:38;;;;;;;;;;;21.80;40.90;;;;;;5073502;28;19932;-70
2023/03/20 09:32:04;;;;;;;;;;;21.80;41.00;;;;;;5072990;28;20439;-70
2023/03/20 09:34:30;;;;;;;;;;;21.80;41.10;;;;;;5071243;28;19955;-68
2023/03/20 09:36:56;;;;;;;;;;;21.70;41.40;;;;;;5075356;28;19985;-68
2023/03/20 09:39:21;;;;;;;;;;;21.70;41.20;;;;;;5075978;28;19966;-67
2023/03/20 09:41:47;;;;;;;;;;;21.60;40.80;;;;;;5074062;28;19928;-67
2023/03/20 09:44:33;;;;;;;;;;;21.50;40.60;;;;;;5074063;28;19930;-68
2023/03/20 09:50:12;;;;;;;;;;;21.30;40.60;;;;;;5076844;27;19924;-66
2023/03/20 09:52:41;;;;;;;;;;;21.30;40.60;;;;;;5076218;28;19946;-65
2023/03/20 09:55:11;;;;;;;;;;;21.30;40.10;;;;;;5113988;27;19935;-65
2023/03/20 09:57:38;;;;;;;;;;;21.30;39.80;;;;;;5077974;28;19928;-65
2023/03/20 10:00:06;;;;;;;;;;;21.30;39.40;;;;;;5081231;28;19924;-65
2023/03/20 10:02:38;;;;;;;;;;;21.20;39.20;;;;;;5070797;28;19928;-65
2023/03/20 10:05:10;;;;;;;;;;;21.10;39.00;;;;;;5111837;27;20034;-65
2023/03/20 10:07:35;;;;;;;;;;;21.20;39.00;;;;;;5080723;28;20311;-65
2023/03/20 10:10:01;;;;;;;;;;;21.20;38.60;;;;;;5111646;27;19956;-66
2023/03/20 10:12:44;;;;;;;;;;;21.30;38.80;;;;;;5083078;28;19936;-66
2023/03/20 10:15:26;;;;;;;;;;;21.50;38.80;;;;;;5078896;28;19950;-65
2023/03/20 10:17:57;;;;;;;;;;;21.70;38.90;;;;;;5078921;28;19925;-67
2023/03/20 10:23:11;;;;;;;;;;;22.00;39.00;;;;;;5047647;28;19973;-69
2023/03/20 10:25:41;;;;;;;;;;;22.20;38.90;;;;;;5043860;28;20016;-68
2023/03/20 10:28:26;;;;;;;;;;;22.20;38.80;;;;;;5031469;28;19964;-68
2023/03/20 10:31:11;;;;;;;;;;;22.40;38.90;;;;;;5023680;28;19924;-67
2023/03/20 10:33:45;;;;;;;;;;;22.40;38.80;;;;;;5022473;28;20279;-67
2023/03/20 10:38:56;;;;;;;;;;;22.50;39.00;;;;;;5065617;28;21093;-68
2023/03/20 10:41:24;;;;;;;;;;;22.40;39.10;;;;;;5058288;28;20380;-68
2023/03/20 10:43:51;;;;;;;;;;;22.30;39.30;;;;;;5051631;28;19925;-69
2023/03/20 10:46:20;;;;;;;;;;;22.20;39.40;;;;;;5054348;28;19924;-68
2023/03/20 10:48:51;;;;;;;;;;;22.20;39.60;;;;;;5059950;28;20273;-68
2023/03/20 10:51:19;;;;;;;;;;;22.10;39.70;;;;;;5057688;28;20167;-67
2023/03/20 10:53:46;;;;;;;;;;;22.00;39.90;;;;;;5056686;28;20019;-69
2023/03/20 10:56:14;;;;;;;;;;;22.00;40.10;;;;;;5051439;28;19963;-67
2023/03/20 10:58:41;;;;;;;;;;;22.00;40.10;;;;;;5040827;28;19925;-70
2023/03/20 11:01:07;;;;;;;;;;;22.00;40.20;;;;;;5049005;28;20425;-67
2023/03/20 11:03:38;;;;;;;;;;;21.90;40.20;;;;;;5056297;28;19924;-68
2023/03/20 11:06:10;;;;;;;;;;;21.90;40.20;;;;;;5055875;28;20402;-69
2023/03/20 11:08:38;;;;;;;;;;;21.90;40.40;;;;;;5059223;28;19967;-70
2023/03/20 11:11:04;;;;;;;;;;;21.90;40.50;;;;;;5048676;28;19933;-70
2023/03/20 11:13:31;;;;;;;;;;;21.90;40.50;;;;;;5055959;28;19931;-70
2023/03/20 11:16:07;;;;;;;;;;;21.90;40.40;;;;;;5055047;28;19931;-68
2023/03/20 11:18:35;;;;;;;;;;;21.90;40.60;;;;;;5051023;28;19920;-68
2023/03/20 11:21:01;;;;;;;;;;;22.00;40.70;;;;;;5054214;28;20003;-71
2023/03/20 11:23:30;;;;;;;;;;;22.00;40.60;;;;;;5057018;28;20012;-69
2023/03/20 11:25:57;;;;;;;;;;;22.00;40.70;;;;;;5051624;28;19948;-65
2023/03/20 11:31:17;;;;;;;;;;;22.00;39.10;;;;;;5108008;27;19916;-66
2023/03/20 11:33:44;;;;;;;;;;;21.90;38.90;;;;;;5080054;28;20018;-65
2023/03/20 11:36:11;;;;;;;;;;;21.80;39.10;;;;;;5095734;28;19929;-65
2023/03/20 11:38:42;;;;;;;;;;;21.70;39.40;;;;;;5108454;27;19931;-65
2023/03/20 11:41:16;;;;;;;;;;;21.70;39.50;;;;;;5104611;28;20485;-66
2023/03/20 11:43:41;;;;;;;;;;;21.70;39.50;;;;;;5094690;28;20619;-66
2023/03/20 11:46:08;;;;;;;;;;;21.80;39.70;;;;;;5069943;28;19916;-68
2023/03/20 11:48:36;;;;;;;;;;;21.80;40.10;;;;;;5097164;28;20019;-72
2023/03/20 11:51:09;;;;;;;;;;;21.90;40.90;;;;;;5112731;27;19982;-69
2023/03/20 11:53:38;;;;;;;;;;;21.90;40.20;;;;;;5089733;28;19954;-67
2023/03/20 11:58:49;;;;;;;;;;;21.90;40.00;;;;;;5072339;27;20342;-67
2023/03/20 12:01:15;;;;;;;;;;;21.90;40.10;;;;;;5062144;28;19964;-68
2023/03/20 12:06:23;;;;;;;;;;;21.80;40.00;;;;;;5077639;27;19921;-68
2023/03/20 12:08:52;;;;;;;;;;;21.80;40.20;;;;;;5085788;28;19924;-70
2023/03/20 12:11:38;;;;;;;;;;;21.80;40.30;;;;;;5083324;28;19928;-67
2023/03/20 12:14:07;;;;;;;;;;;22.00;40.40;;;;;;5055354;28;19935;-70
2023/03/20 12:16:35;;;;;;;;;;;22.00;40.40;;;;;;5048391;28;20673;-68
2023/03/20 12:19:08;;;;;;;;;;;21.90;40.40;;;;;;5056136;28;20280;-68
2023/03/20 12:21:39;;;;;;;;;;;21.90;40.60;;;;;;5082968;28;19928;-70
2023/03/20 12:26:49;;;;;;;;;;;21.90;40.50;;;;;;5092006;27;20449;-70
2023/03/20 12:29:26;;;;;;;;;;;21.90;40.40;;;;;;5070844;28;19935;-69
2023/03/20 12:31:56;;;;;;;;;;;21.90;40.40;;;;;;5096965;27;19928;-67
2023/03/20 12:34:40;;;;;;;;;;;21.90;40.40;;;;;;5063881;28;19931;-67
2023/03/20 12:37:08;;;;;;;;;;;21.90;40.40;;;;;;5059695;28;19924;-66
2023/03/20 12:39:35;;;;;;;;;;;21.80;40.30;;;;;;5070008;28;19931;-67
2023/03/20 12:42:21;;;;;;;;;;;21.90;40.30;;;;;;5074009;28;19935;-67
2023/03/20 12:44:48;;;;;;;;;;;21.80;40.20;;;;;;5069181;28;19974;-67
2023/03/20 12:53:02;;;;;;;;;;;21.70;40.40;;;;;;5071636;27;20404;-67
2023/03/20 13:01:01;;;;;;;;;;;21.80;40.50;;;;;;5075776;27;19926;-71
2023/03/20 13:03:33;;;;;;;;;;;21.80;40.60;;;;;;5051978;28;19935;-70
2023/03/20 13:06:08;;;;;;;;;;;21.80;40.50;;;;;;5049027;28;19925;-67
2023/03/20 13:08:42;;;;;;;;;;;21.90;40.60;;;;;;5050566;28;19921;-68
2023/03/20 13:11:14;;;;;;;;;;;21.90;40.50;;;;;;5081066;28;19936;-68
2023/03/20 13:13:46;;;;;;;;;;;21.90;40.60;;;;;;5052972;28;20422;-70
2023/03/20 13:16:16;;;;;;;;;;;21.90;40.60;;;;;;5050659;28;19956;-70
2023/03/20 13:19:01;;;;;;;;;;;21.90;40.60;;;;;;5053241;28;19955;-67
2023/03/20 13:21:32;;;;;;;;;;;21.90;40.60;;;;;;5055281;28;19935;-66
2023/03/20 13:26:59;;;;;;;;;;;21.90;40.70;;;;;;5081154;27;20526;-67
2023/03/20 13:32:17;;;;;;;;;;;21.80;41.10;;;;;;5069494;27;19924;-67
2023/03/20 13:34:56;;;;;;;;;;;21.90;41.10;;;;;;5055862;28;19940;-70
2023/03/20 13:37:27;;;;;;;;;;;21.90;41.10;;;;;;5058492;28;19928;-69
2023/03/20 13:42:37;;;;;;;;;;;21.90;41.20;;;;;;5064064;28;19921;-73
2023/03/20 13:45:05;;;;;;;;;;;21.90;41.20;;;;;;5079063;28;20118;-68
2023/03/20 13:47:32;;;;;;;;;;;21.90;41.10;;;;;;5071007;28;19925;-73
2023/03/20 13:50:05;;;;;;;;;;;21.80;41.10;;;;;;5069840;28;20051;-68
2023/03/20 13:52:37;;;;;;;;;;;21.80;41.20;;;;;;5071026;28;19928;-73
2023/03/20 13:55:13;;;;;;;;;;;21.70;41.20;;;;;;5059109;28;20421;-68
2023/03/20 14:03:24;;;;;;;;;;;21.60;41.30;;;;;;5076980;27;19924;-67
2023/03/20 14:05:49;;;;;;;;;;;21.50;41.50;;;;;;5106461;28;19924;-66
2023/03/20 14:08:32;;;;;;;;;;;21.60;41.70;;;;;;5075013;28;20483;-67
2023/03/20 14:11:17;;;;;;;;;;;21.70;41.80;;;;;;5077701;28;19927;-67
2023/03/20 14:13:45;;;;;;;;;;;21.70;41.80;;;;;;5079578;28;19928;-67
2023/03/20 14:16:13;;;;;;;;;;;21.80;41.60;;;;;;5078709;28;19920;-67
2023/03/20 14:18:40;;;;;;;;;;;21.80;41.90;;;;;;5081114;28;19932;-66
2023/03/20 14:21:11;;;;;;;;;;;21.90;41.80;;;;;;5082495;28;19928;-64
2023/03/20 14:23:41;;;;;;;;;;;21.90;41.60;;;;;;5082073;28;19920;-68
2023/03/20 14:26:09;;;;;;;;;;;21.90;41.50;;;;;;5082855;28;19927;-67
2023/03/20 14:28:54;;;;;;;;;;;22.00;41.50;;;;;;5081443;28;20371;-67
2023/03/20 14:34:15;;;;;;;;;;;22.10;41.10;;;;;;5104668;27;19916;-66
2023/03/20 14:42:38;;;;;;;;;;;22.20;40.70;;;;;;5120588;27;19926;-65
2023/03/20 14:45:23;;;;;;;;;;;22.20;40.70;;;;;;5108345;28;20010;-66
2023/03/20 14:48:09;;;;;;;;;;;22.20;40.60;;;;;;5101102;28;20389;-62
2023/03/20 14:50:38;;;;;;;;;;;22.20;40.70;;;;;;5104460;28;19959;-65
2023/03/20 14:55:50;;;;;;;;;;;22.10;40.80;;;;;;5103105;27;19916;-66
2023/03/20 14:58:35;;;;;;;;;;;22.00;40.90;;;;;;5135134;27;19924;-67
2023/03/20 15:01:03;;;;;;;;;;;22.00;41.10;;;;;;5098432;28;20624;-66
2023/03/20 15:03:29;;;;;;;;;;;22.00;41.20;;;;;;5101177;28;20011;-66
2023/03/20 15:05:56;;;;;;;;;;;22.00;41.50;;;;;;5101465;28;20425;-66
2023/03/20 15:08:23;;;;;;;;;;;22.00;41.40;;;;;;5102619;28;20211;-63
2023/03/20 15:10:54;;;;;;;;;;;22.10;41.30;;;;;;5106028;28;20298;-64
2023/03/20 15:13:20;;;;;;;;;;;22.00;41.30;;;;;;5103784;28;19967;-64
2023/03/20 15:15:54;;;;;;;;;;;22.00;41.40;;;;;;5103325;28;20217;-68
2023/03/20 15:18:21;;;;;;;;;;;21.90;41.70;;;;;;5096994;28;19920;-66
2023/03/20 15:20:47;;;;;;;;;;;21.90;41.90;;;;;;5105264;28;19963;-66
2023/03/20 15:23:12;;;;;;;;;;;21.80;41.90;;;;;;5103213;28;20373;-66
2023/03/20 15:25:42;;;;;;;;;;;21.80;42.10;;;;;;5105408;28;19923;-64
2023/03/20 15:28:12;;;;;;;;;;;21.70;42.30;;;;;;5104489;28;20189;-66
2023/03/20 15:30:38;;;;;;;;;;;21.60;42.30;;;;;;5104246;28;20390;-65
2023/03/20 15:33:14;;;;;;;;;;;21.60;42.60;;;;;;5104919;28;20283;-66
2023/03/20 15:35:40;;;;;;;;;;;21.50;42.60;;;;;;5135223;27;19950;-68
2023/03/20 15:38:06;;;;;;;;;;;21.60;42.70;;;;;;5106918;28;19949;-64
2023/03/20 15:40:32;;;;;;;;;;;21.60;42.50;;;;;;5106526;28;19920;-69